Paris Hill, Maine
Current Conditions -  °F | °C
As of 5:35 AM on Monday 26 Jan 2015 (Local Time) from KLEW Reporting Station
Clear Clear  
Wind Chill: -12°   Ceiling: Unl
Heat Index:   Visibility: 10mi
Dew Point: -8°   Wind: 10mph
Humidity: 61%   Direction: 10°N
Pressure: 30.08"   Gusts: NA
Location:  44.2599°N, 70.5024°W
Report Text: KLEW 261035Z AUTO 01009KT 10SM CLR M16/M22 A3008 RMK AO1
Loading
Personal Weather Stations






























Interactive Weather Map New forecast layout! Learn more

10-Day Weather Forecast

Advertisements
Track Severe Weather on mobile